Time,TemperatureF,DewpointF,PressureIn,WindDirection,WindDirectionDegrees,WindSpeedMPH,WindSpeedGustMPH,Humidity,HourlyPrecipIn,Conditions,Clouds,dailyrainin,SoftwareType,DateUTC
2013-02-23 00:01:00,37.0,28.0,-100.00,WNW,300,3.0,10.0,69,-99.99,,,-99.99,,2013-02-23 08:01:00,
2013-02-23 00:10:00,35.0,28.0,-100.00,NW,320,3.0,8.0,75,-99.99,,,-99.99,,2013-02-23 08:10:00,
2013-02-23 01:01:00,35.0,28.0,-100.00,NW,320,3.0,8.0,75,-99.99,,,-99.99,,2013-02-23 09:01:00,
2013-02-23 02:01:00,33.0,27.0,-100.00,NNW,330,2.0,6.0,78,-99.99,,,-99.99,,2013-02-23 10:01:00,
2013-02-23 02:10:00,32.0,27.0,-100.00,North,360,2.0,5.0,81,-99.99,,,-99.99,,2013-02-23 10:10:00,
2013-02-23 02:11:00,33.0,27.0,-100.00,NNW,330,2.0,6.0,78,-99.99,,,-99.99,,2013-02-23 10:11:00,
2013-02-23 03:02:00,32.0,27.0,-100.00,North,360,2.0,5.0,81,-99.99,,,-99.99,,2013-02-23 11:02:00,
2013-02-23 04:01:00,33.0,28.0,-100.00,NW,315,2.0,7.0,81,-99.99,,,-99.99,,2013-02-23 12:01:00,
2013-02-23 04:11:00,33.0,28.0,-100.00,NW,315,2.0,7.0,81,-99.99,,,-99.99,,2013-02-23 12:11:00,
2013-02-23 05:01:00,34.0,26.0,-100.00,WNW,285,5.0,10.0,72,-99.99,,,-99.99,,2013-02-23 13:01:00,
2013-02-23 05:10:00,33.0,25.0,-100.00,West,275,8.0,13.0,72,-99.99,,,-99.99,,2013-02-23 13:10:00,
2013-02-23 06:02:00,33.0,25.0,-100.00,West,275,8.0,13.0,72,-99.99,,,-99.99,,2013-02-23 14:02:00,
2013-02-23 07:01:00,36.0,24.0,-100.00,WNW,295,6.0,15.0,61,-99.99,,,-99.99,,2013-02-23 15:01:00,
2013-02-23 07:10:00,37.0,24.0,-100.00,NW,325,5.0,15.0,58,-99.99,,,-99.99,,2013-02-23 15:10:00,
2013-02-23 07:11:00,36.0,24.0,-100.00,WNW,295,6.0,15.0,61,-99.99,,,-99.99,,2013-02-23 15:11:00,
2013-02-23 08:01:00,37.0,24.0,-100.00,NW,325,5.0,15.0,58,-99.99,,,-99.99,,2013-02-23 16:01:00,
2013-02-23 09:01:00,39.0,25.0,-100.00,NW,310,3.0,12.0,56,-99.99,,,-99.99,,2013-02-23 17:01:00,
2013-02-23 09:11:00,39.0,25.0,-100.00,NW,310,3.0,12.0,56,-99.99,,,-99.99,,2013-02-23 17:11:00,
2013-02-23 09:20:00,42.0,27.0,-100.00,North,360,6.0,12.0,54,-99.99,,,-99.99,,2013-02-23 17:20:00,
2013-02-23 10:01:00,42.0,27.0,-100.00,North,360,6.0,12.0,54,-99.99,,,-99.99,,2013-02-23 18:01:00,
2013-02-23 10:10:00,45.0,27.0,-100.00,North,360,7.0,12.0,49,-99.99,,,-99.99,,2013-02-23 18:10:00,
2013-02-23 10:12:00,42.0,27.0,-100.00,North,360,6.0,12.0,54,-99.99,,,-99.99,,2013-02-23 18:12:00,
2013-02-23 11:01:00,45.0,27.0,-100.00,North,360,7.0,12.0,49,-99.99,,,-99.99,,2013-02-23 19:01:00,
2013-02-23 12:01:00,49.0,26.0,-100.00,NNW,335,6.0,13.0,40,-99.99,,,-99.99,,2013-02-23 20:01:00,
2013-02-23 12:11:00,49.0,26.0,-100.00,NNW,335,6.0,13.0,40,-99.99,,,-99.99,,2013-02-23 20:11:00,
2013-02-23 13:01:00,50.0,26.0,-100.00,North,5,7.0,14.0,38,-99.99,,,-99.99,,2013-02-23 21:01:00,
2013-02-23 13:10:00,50.0,23.0,-100.00,WNW,290,12.0,21.0,34,-99.99,,,-99.99,,2013-02-23 21:10:00,
2013-02-23 14:01:00,50.0,23.0,-100.00,WNW,290,12.0,21.0,34,-99.99,,,-99.99,,2013-02-23 22:01:00,
2013-02-23 15:01:00,50.0,20.0,-100.00,NNW,330,10.0,24.0,30,-99.99,,,-99.99,,2013-02-23 23:01:00,
2013-02-23 15:10:00,49.0,20.0,-100.00,NW,320,12.0,25.0,31,-99.99,,,-99.99,,2013-02-23 23:10:00,
2013-02-23 15:11:00,50.0,20.0,-100.00,NNW,330,10.0,24.0,30,-99.99,,,-99.99,,2013-02-23 23:11:00,
2013-02-23 16:01:00,49.0,20.0,-100.00,NW,320,12.0,25.0,31,-99.99,,,-99.99,,2013-02-24 00:01:00,
2013-02-23 17:01:00,47.0,21.0,-100.00,NW,310,9.0,17.0,35,-99.99,,,-99.99,,2013-02-24 01:01:00,
2013-02-23 17:11:00,47.0,21.0,-100.00,NW,310,9.0,17.0,35,-99.99,,,-99.99,,2013-02-24 01:11:00,
2013-02-23 18:01:00,44.0,20.0,-100.00,North,355,7.0,13.0,37,-99.99,,,-99.99,,2013-02-24 02:01:00,
2013-02-23 18:10:00,40.0,21.0,-100.00,NNW,335,3.0,7.0,46,-99.99,,,-99.99,,2013-02-24 02:10:00,
2013-02-23 19:01:00,40.0,21.0,-100.00,NNW,335,3.0,7.0,46,-99.99,,,-99.99,,2013-02-24 03:01:00,
2013-02-23 20:01:00,40.0,21.0,-100.00,North,360,6.0,9.0,46,-99.99,,,-99.99,,2013-02-24 04:01:00,
2013-02-23 20:10:00,40.0,21.0,-100.00,NW,310,7.0,10.0,46,-99.99,,,-99.99,,2013-02-24 04:10:00,
2013-02-23 20:11:00,40.0,21.0,-100.00,North,360,6.0,9.0,46,-99.99,,,-99.99,,2013-02-24 04:11:00,
2013-02-23 21:01:00,40.0,21.0,-100.00,NW,310,7.0,10.0,46,-99.99,,,-99.99,,2013-02-24 05:01:00,
2013-02-23 22:01:00,37.0,20.0,-100.00,West,280,9.0,13.0,49,-99.99,,,-99.99,,2013-02-24 06:01:00,
2013-02-23 22:11:00,37.0,20.0,-100.00,West,280,9.0,13.0,49,-99.99,,,-99.99,,2013-02-24 06:11:00,
2013-02-23 22:20:00,37.0,20.0,-100.00,West,265,8.0,13.0,49,-99.99,,,-99.99,,2013-02-24 06:20:00,
2013-02-23 23:01:00,37.0,20.0,-100.00,West,265,8.0,13.0,49,-99.99,,,-99.99,,2013-02-24 07:01:00,
2013-02-23 23:10:00,36.0,20.0,-100.00,West,270,7.0,14.0,51,-99.99,,,-99.99,,2013-02-24 07:10:00,
2013-02-23 23:11:00,37.0,20.0,-100.00,West,265,8.0,13.0,49,-99.99,,,-99.99,,2013-02-24 07:11:00,